Time;durP1;ratioP1;P1;durP2;ratioP2;P2;SDS_P1;SDS_P2;PMS_P1;PMS_P2;Temp;Humidity;BMP_temperature;BMP_pressure;BME280_temperature;BME280_humidity;BME280_pressure;Samples;Min_cycle;Max_cycle;Signal;HPM_P1;HPM_P2
2023/06/25 00:00:44;;;;;;;15.63;13.20;;;;;;;20.22;87.18;101923.44;5000172;28;20522;-49
2023/06/25 00:03:10;;;;;;;15.98;13.35;;;;;;;20.15;87.68;101921.34;5004030;28;20025;-48
2023/06/25 00:05:35;;;;;;;15.73;12.77;;;;;;;20.17;87.34;101917.63;4999528;28;20121;-48
2023/06/25 00:08:00;;;;;;;15.30;12.90;;;;;;;20.12;87.96;101920.81;4998719;28;20365;-48
2023/06/25 00:10:26;;;;;;;15.90;12.55;;;;;;;20.09;87.65;101919.25;4997989;28;20030;-48
2023/06/25 00:12:51;;;;;;;16.75;12.73;;;;;;;20.06;87.95;101906.09;4999722;28;20030;-49
2023/06/25 00:15:16;;;;;;;15.10;12.02;;;;;;;20.06;87.14;101910.66;5002061;28;20027;-49
2023/06/25 00:17:47;;;;;;;15.40;12.55;;;;;;;20.04;88.01;101916.19;4998992;28;20518;-49
2023/06/25 00:20:12;;;;;;;16.60;13.15;;;;;;;19.99;88.09;101912.25;5003903;28;20026;-48
2023/06/25 00:22:38;;;;;;;15.55;12.48;;;;;;;19.95;88.42;101912.56;5001762;28;20092;-49
2023/06/25 00:25:03;;;;;;;18.20;13.52;;;;;;;19.91;88.69;101907.63;4999134;28;20113;-49
2023/06/25 00:27:29;;;;;;;21.05;14.70;;;;;;;19.91;88.71;101910.31;4999423;28;20488;-48
2023/06/25 00:29:54;;;;;;;17.17;13.88;;;;;;;19.86;89.18;101913.47;4996932;28;20054;-48
2023/06/25 00:32:19;;;;;;;16.83;13.55;;;;;;;19.85;88.82;101906.41;4999550;28;20527;-49
2023/06/25 00:34:44;;;;;;;21.40;13.52;;;;;;;19.83;88.74;101902.16;5002740;28;20092;-49
2023/06/25 00:37:17;;;;;;;21.30;13.63;;;;;;;19.75;90.16;101905.59;5003373;28;20038;-48
2023/06/25 00:39:44;;;;;;;18.83;14.45;;;;;;;19.73;90.21;101904.88;5001706;28;20025;-48
2023/06/25 00:42:09;;;;;;;16.20;13.43;;;;;;;19.68;90.12;101896.41;5003875;28;20088;-49
2023/06/25 00:44:40;;;;;;;17.48;14.27;;;;;;;19.66;90.60;101893.00;5002329;28;20113;-49
2023/06/25 00:47:12;;;;;;;16.50;13.48;;;;;;;19.66;90.76;101895.72;5003609;28;20018;-51
2023/06/25 00:49:43;;;;;;;18.30;14.25;;;;;;;19.59;91.09;101890.91;5003946;28;20061;-50
2023/06/25 00:52:10;;;;;;;19.15;14.82;;;;;;;19.54;91.10;101890.53;5002133;28;20038;-49
2023/06/25 00:54:41;;;;;;;15.57;13.95;;;;;;;19.55;90.98;101892.22;4998170;28;20054;-51
2023/06/25 00:57:08;;;;;;;23.55;13.88;;;;;;;19.55;91.27;101888.66;5003757;28;20034;-50
2023/06/25 00:59:36;;;;;;;20.25;13.65;;;;;;;19.48;91.66;101884.91;5005157;28;20116;-49
2023/06/25 01:02:14;;;;;;;17.98;13.65;;;;;;;19.42;91.27;101887.19;5001025;28;20035;-49
2023/06/25 01:04:55;;;;;;;15.70;13.83;;;;;;;19.44;91.53;101880.81;4995909;28;20041;-48
2023/06/25 01:07:22;;;;;;;16.92;13.93;;;;;;;19.41;91.38;101882.78;4995723;28;20042;-49
2023/06/25 01:09:49;;;;;;;19.40;14.43;;;;;;;19.35;91.74;101874.47;5004388;28;20019;-49
2023/06/25 01:12:15;;;;;;;15.65;13.60;;;;;;;19.34;91.79;101879.00;4997320;28;20100;-48
2023/06/25 01:14:40;;;;;;;16.67;13.85;;;;;;;19.30;91.55;101874.94;4999899;28;20541;-51
2023/06/25 01:17:07;;;;;;;17.52;13.77;;;;;;;19.27;92.33;101875.22;5000786;28;20030;-50
2023/06/25 01:19:32;;;;;;;19.00;14.45;;;;;;;19.26;92.19;101875.38;5000920;28;20100;-48
2023/06/25 01:22:03;;;;;;;16.38;13.43;;;;;;;19.21;91.69;101876.66;4998094;28;20026;-49
2023/06/25 01:24:29;;;;;;;18.33;14.32;;;;;;;19.16;93.05;101870.88;4998206;28;20025;-48
2023/06/25 01:26:56;;;;;;;15.20;13.30;;;;;;;19.11;92.83;101862.41;4998365;28;20030;-48
2023/06/25 01:29:22;;;;;;;15.80;13.98;;;;;;;19.16;92.58;101870.03;5001390;28;20035;-48
2023/06/25 01:31:51;;;;;;;16.20;13.80;;;;;;;19.11;92.95;101865.09;5001090;28;20038;-49
2023/06/25 01:34:16;;;;;;;;;;;;;;;19.22;88.55;101862.22;5002056;28;20096;-48
2023/06/25 01:36:42;;;;;;;17.80;13.82;;;;;;;19.07;92.26;101857.44;4996915;28;20387;-51
2023/06/25 01:39:07;;;;;;;15.77;12.93;;;;;;;19.00;92.92;101851.81;5002007;28;20022;-48
2023/06/25 01:41:33;;;;;;;15.00;12.65;;;;;;;18.96;93.31;101851.25;4995508;28;20028;-49
2023/06/25 01:43:58;;;;;;;14.77;12.80;;;;;;;18.94;93.04;101849.72;5000812;28;20058;-50
2023/06/25 01:46:24;;;;;;;18.83;13.07;;;;;;;18.95;93.44;101846.91;4992518;28;20026;-50
2023/06/25 01:48:49;;;;;;;16.70;13.18;;;;;;;18.90;93.89;101846.50;5000793;28;20790;-48
2023/06/25 01:51:14;;;;;;;17.77;12.82;;;;;;;18.88;94.38;101842.25;4997205;28;20527;-48
2023/06/25 01:53:40;;;;;;;17.38;13.35;;;;;;;18.85;94.39;101843.38;4996592;28;20084;-50
2023/06/25 01:56:05;;;;;;;17.13;14.07;;;;;;;18.81;94.66;101837.41;4997327;28;20357;-48
2023/06/25 01:58:30;;;;;;;15.20;12.82;;;;;;;18.81;94.11;101834.72;4998627;28;20037;-51
2023/06/25 02:00:56;;;;;;;15.97;12.87;;;;;;;18.77;94.14;101836.03;4997216;28;20050;-48
2023/06/25 02:03:21;;;;;;;13.40;11.95;;;;;;;18.78;94.63;101829.63;4997549;28;20763;-49
2023/06/25 02:05:46;;;;;;;16.55;12.70;;;;;;;18.74;94.85;101822.84;4991684;28;20391;-48
2023/06/25 02:08:12;;;;;;;13.70;11.60;;;;;;;18.67;95.67;101822.59;4998869;28;20455;-48
2023/06/25 02:10:37;;;;;;;15.95;12.25;;;;;;;18.68;95.24;101824.31;5000881;28;20057;-49
2023/06/25 02:13:02;;;;;;;13.57;11.98;;;;;;;18.68;95.27;101820.75;4998840;28;20557;-48
2023/06/25 02:15:28;;;;;;;14.70;12.13;;;;;;;18.64;95.65;101811.28;4998415;28;20488;-47
2023/06/25 02:17:54;;;;;;;16.13;12.30;;;;;;;18.62;95.63;101810.59;4996543;28;20042;-47
2023/06/25 02:20:19;;;;;;;16.17;12.68;;;;;;;18.57;96.04;101808.31;4998640;28;20023;-48
2023/06/25 02:22:47;;;;;;;15.45;11.85;;;;;;;18.56;96.09;101806.63;5000220;28;20471;-48
2023/06/25 02:25:13;;;;;;;14.27;12.23;;;;;;;18.53;95.44;101804.22;5000463;28;20022;-47
2023/06/25 02:27:38;;;;;;;13.02;11.68;;;;;;;18.53;95.76;101796.16;4995669;28;20161;-48
2023/06/25 02:30:04;;;;;;;15.13;11.77;;;;;;;18.50;95.87;101804.50;4997924;28;20030;-47
2023/06/25 02:32:29;;;;;;;25.30;12.45;;;;;;;18.51;95.07;101802.69;5002538;28;20446;-48
2023/06/25 02:34:55;;;;;;;14.70;12.02;;;;;;;18.44;96.10;101797.88;5000073;28;20484;-48
2023/06/25 02:37:20;;;;;;;13.03;10.93;;;;;;;18.46;95.71;101795.03;5002070;28;20448;-48
2023/06/25 02:39:45;;;;;;;15.82;11.85;;;;;;;18.42;95.04;101789.13;4996154;28;20296;-49
2023/06/25 02:42:11;;;;;;;14.73;12.07;;;;;;;18.43;95.76;101790.78;5000086;28;20122;-49
2023/06/25 02:44:36;;;;;;;15.27;12.40;;;;;;;18.38;96.20;101784.16;5004054;28;20463;-49
2023/06/25 02:47:02;;;;;;;15.75;12.75;;;;;;;18.34;96.07;101788.16;5003761;28;20423;-48
2023/06/25 02:49:27;;;;;;;13.30;11.90;;;;;;;18.34;95.69;101794.38;4998238;28;20042;-50
2023/06/25 02:51:52;;;;;;;16.17;12.52;;;;;;;18.27;96.61;101782.50;4997452;28;20030;-49
2023/06/25 02:54:17;;;;;;;14.73;11.77;;;;;;;18.30;96.43;101783.06;4998974;28;20033;-49
2023/06/25 02:56:43;;;;;;;16.05;12.00;;;;;;;18.25;96.63;101784.47;5000528;28;20116;-51
2023/06/25 02:59:08;;;;;;;15.50;12.35;;;;;;;18.25;96.59;101781.78;5002403;28;20034;-48
2023/06/25 03:01:33;;;;;;;14.07;11.63;;;;;;;18.24;96.19;101772.88;4999721;28;20053;-51
2023/06/25 03:03:59;;;;;;;16.25;12.18;;;;;;;18.18;97.19;101783.38;4996341;28;20038;-50
2023/06/25 03:06:24;;;;;;;14.40;12.50;;;;;;;18.18;96.51;101780.69;4997240;28;20069;-51
2023/06/25 03:08:49;;;;;;;15.48;12.00;;;;;;;18.15;96.87;101779.09;5003461;28;20034;-48
2023/06/25 03:11:15;;;;;;;15.60;12.65;;;;;;;18.13;97.10;101783.78;5002245;28;20076;-50
2023/06/25 03:13:40;;;;;;;15.00;11.65;;;;;;;18.10;96.36;101781.38;4998254;28;20558;-47
2023/06/25 03:16:05;;;;;;;13.48;11.48;;;;;;;18.07;97.46;101776.31;4994148;28;20023;-48
2023/06/25 03:18:30;;;;;;;18.67;12.60;;;;;;;18.09;96.75;101779.72;5000485;28;20092;-48
2023/06/25 03:20:56;;;;;;;15.77;12.80;;;;;;;18.04;97.10;101780.13;4998642;28;20383;-48
2023/06/25 03:23:21;;;;;;;14.32;11.68;;;;;;;18.01;97.23;101777.72;4997282;28;20029;-48
2023/06/25 03:25:46;;;;;;;14.38;12.32;;;;;;;18.01;96.97;101775.03;4995934;28;20026;-48
2023/06/25 03:28:12;;;;;;;14.77;11.80;;;;;;;17.97;97.08;101772.78;4993532;28;20034;-48
2023/06/25 03:30:37;;;;;;;14.07;12.40;;;;;;;17.94;97.88;101774.75;4999458;28;20076;-49
2023/06/25 03:33:02;;;;;;;15.75;12.93;;;;;;;17.91;98.58;101772.34;5001970;28;20100;-50
2023/06/25 03:35:27;;;;;;;15.80;12.15;;;;;;;17.88;97.04;101775.31;4997683;28;20531;-49
2023/06/25 03:37:53;;;;;;;19.15;12.52;;;;;;;17.88;98.00;101774.50;4996573;28;20034;-50
2023/06/25 03:40:18;;;;;;;16.50;12.88;;;;;;;17.86;98.36;101769.22;4998950;28;20026;-49
2023/06/25 03:42:43;;;;;;;15.77;13.00;;;;;;;17.84;98.44;101770.38;4997466;28;20030;-49
2023/06/25 03:45:09;;;;;;;18.40;13.05;;;;;;;17.81;97.96;101768.81;5003279;28;20023;-50
2023/06/25 03:47:34;;;;;;;16.60;12.75;;;;;;;17.84;98.17;101765.00;5006236;28;20382;-48
2023/06/25 03:50:00;;;;;;;17.70;13.32;;;;;;;17.84;98.21;101762.31;5006805;28;20018;-49
2023/06/25 03:52:25;;;;;;;16.33;12.77;;;;;;;17.84;98.46;101763.16;5000032;28;20030;-48
2023/06/25 03:54:50;;;;;;;16.15;13.05;;;;;;;17.80;99.22;101755.50;5000336;28;20280;-48
2023/06/25 03:57:16;;;;;;;16.98;13.73;;;;;;;17.79;99.52;101762.72;5002010;28;20044;-51
2023/06/25 03:59:42;;;;;;;16.58;14.15;;;;;;;17.78;99.54;101763.72;5001267;28;20041;-49
2023/06/25 04:02:07;;;;;;;16.73;13.43;;;;;;;17.81;98.58;101763.44;5000621;28;20109;-49
2023/06/25 04:04:33;;;;;;;16.60;13.23;;;;;;;17.82;99.15;101762.44;5001856;28;20072;-50
2023/06/25 04:06:58;;;;;;;21.52;14.38;;;;;;;17.80;98.92;101760.88;5001777;28;20080;-48
2023/06/25 04:09:23;;;;;;;17.50;14.30;;;;;;;17.82;98.91;101770.50;4999271;28;20506;-50
2023/06/25 04:11:49;;;;;;;21.48;14.85;;;;;;;17.81;99.02;101763.44;5002458;28;20034;-48
2023/06/25 04:14:14;;;;;;;16.10;14.25;;;;;;;17.85;99.03;101759.47;4997955;28;20070;-49
2023/06/25 04:16:39;;;;;;;21.17;14.60;;;;;;;17.84;99.67;101756.94;5001878;28;20109;-49
2023/06/25 04:19:04;;;;;;;18.23;14.63;;;;;;;17.86;99.33;101765.69;5005539;28;20014;-50
2023/06/25 04:21:30;;;;;;;19.73;15.43;;;;;;;17.88;99.17;101758.38;5001802;28;20080;-49
2023/06/25 04:23:55;;;;;;;17.30;14.55;;;;;;;17.89;99.69;101765.44;5000900;28;20022;-49
2023/06/25 04:26:20;;;;;;;19.77;15.40;;;;;;;17.92;99.51;101757.94;5002891;28;20039;-49
2023/06/25 04:28:46;;;;;;;19.63;15.98;;;;;;;17.97;99.04;101756.66;4998856;28;21009;-50
2023/06/25 04:31:11;;;;;;;20.00;16.13;;;;;;;17.98;99.23;101750.28;5005846;28;20386;-49
2023/06/25 04:33:41;;;;;;;20.77;16.92;;;;;;;17.99;99.59;101755.53;5002117;28;20045;-50
2023/06/25 04:36:10;;;;;;;22.73;17.60;;;;;;;18.03;99.24;101754.22;5001908;28;20046;-49
2023/06/25 04:38:35;;;;;;;;;;;;;;;18.14;95.98;101757.78;5003290;28;20066;-52
2023/06/25 04:41:00;;;;;;;25.00;18.13;;;;;;;18.14;98.91;101757.78;5000478;28;19944;-49
2023/06/25 04:43:26;;;;;;;19.20;17.02;;;;;;;18.18;99.23;101760.00;4998027;28;20481;-50
2023/06/25 04:45:51;;;;;;;22.35;18.63;;;;;;;18.26;99.75;101754.75;5003461;28;20506;-49
2023/06/25 04:48:17;;;;;;;23.48;19.25;;;;;;;18.33;98.95;101755.00;4998828;28;20049;-49
2023/06/25 04:50:43;;;;;;;24.05;20.02;;;;;;;18.41;99.59;101767.75;5001704;28;20533;-50
2023/06/25 04:53:08;;;;;;;21.05;18.85;;;;;;;18.52;98.39;101755.94;4997471;28;20227;-51
2023/06/25 04:55:33;;;;;;;23.70;20.52;;;;;;;18.57;98.36;101757.22;5000624;28;20407;-49
2023/06/25 04:57:59;;;;;;;23.10;19.52;;;;;;;18.67;98.29;101749.09;5000683;28;20065;-49
2023/06/25 05:00:24;;;;;;;22.65;20.35;;;;;;;18.83;96.56;101754.69;5000283;28;20048;-49
2023/06/25 05:02:49;;;;;;;23.90;19.40;;;;;;;18.91;96.19;101761.19;4997959;28;20117;-49
2023/06/25 05:05:14;;;;;;;23.10;20.15;;;;;;;19.06;95.27;101757.00;5004386;28;20479;-51
2023/06/25 05:07:40;;;;;;;22.33;19.38;;;;;;;19.18;94.19;101753.06;4997991;28;20198;-49
2023/06/25 05:10:06;;;;;;;25.25;19.88;;;;;;;19.30;92.00;101752.84;5000742;28;20030;-49
2023/06/25 05:12:31;;;;;;;22.45;19.27;;;;;;;19.46;90.59;101754.88;4997593;28;20550;-49
2023/06/25 05:14:56;;;;;;;21.63;19.33;;;;;;;19.59;91.39;101758.88;5001396;28;20050;-50
2023/06/25 05:17:21;;;;;;;25.13;19.02;;;;;;;19.70;89.76;101760.50;4996829;28;20026;-49
2023/06/25 05:19:47;;;;;;;20.35;18.08;;;;;;;19.79;85.79;101761.44;5001640;28;20022;-49
2023/06/25 05:22:12;;;;;;;21.20;18.88;;;;;;;19.87;84.69;101756.13;4994984;28;20065;-48
2023/06/25 05:24:37;;;;;;;20.33;18.23;;;;;;;19.92;84.06;101759.19;5001106;28;20028;-48
2023/06/25 05:27:03;;;;;;;21.75;19.00;;;;;;;20.00;83.28;101755.72;4993540;28;20034;-49
2023/06/25 05:29:28;;;;;;;22.85;19.85;;;;;;;20.06;82.84;101757.75;5000587;28;20053;-48
2023/06/25 05:31:56;;;;;;;22.27;19.13;;;;;;;20.21;83.25;101758.03;4994052;28;20042;-48
2023/06/25 05:34:22;;;;;;;22.92;18.48;;;;;;;20.34;82.51;101761.16;4997867;28;20050;-49
2023/06/25 05:36:48;;;;;;;20.67;18.50;;;;;;;20.52;80.08;101760.25;5000733;28;20388;-48
2023/06/25 05:39:13;;;;;;;20.35;18.25;;;;;;;20.70;79.86;101761.03;5002086;28;20087;-49
2023/06/25 05:41:41;;;;;;;21.08;17.95;;;;;;;20.88;78.76;101747.44;4998096;28;20046;-50
2023/06/25 05:44:07;;;;;;;21.10;18.90;;;;;;;21.12;77.99;101750.38;5000943;28;20030;-49
2023/06/25 05:46:32;;;;;;;20.90;18.63;;;;;;;21.30;78.07;101744.81;4986503;28;20383;-48
2023/06/25 05:48:57;;;;;;;19.75;17.65;;;;;;;21.47;75.61;101738.47;4997989;28;20113;-49
2023/06/25 05:51:23;;;;;;;20.33;18.27;;;;;;;21.69;75.50;101739.66;5000631;28;20033;-48
2023/06/25 05:53:50;;;;;;;18.58;16.58;;;;;;;21.97;75.01;101739.31;4997648;28;20062;-50
2023/06/25 05:56:16;;;;;;;19.25;17.23;;;;;;;22.18;72.75;101746.88;4996853;28;20384;-49
2023/06/25 05:58:42;;;;;;;19.20;16.75;;;;;;;22.35;71.56;101737.75;5002459;28;20031;-50
2023/06/25 06:01:08;;;;;;;19.27;15.93;;;;;;;22.60;71.14;101737.66;4995300;28;20030;-48
2023/06/25 06:03:33;;;;;;;17.30;15.13;;;;;;;22.75;69.16;101732.34;4998489;28;20030;-49
2023/06/25 06:05:59;;;;;;;17.30;15.00;;;;;;;22.91;67.14;101737.69;4993629;28;20035;-48
2023/06/25 06:08:25;;;;;;;16.30;14.18;;;;;;;23.19;68.59;101731.78;5000880;28;20387;-48
2023/06/25 06:10:50;;;;;;;17.80;14.52;;;;;;;23.44;66.18;101734.34;4999064;28;20026;-48
2023/06/25 06:13:16;;;;;;;16.40;14.70;;;;;;;23.59;64.93;101742.53;4987334;28;20042;-48
2023/06/25 06:15:41;;;;;;;17.40;14.10;;;;;;;23.82;65.53;101740.66;5000215;28;20033;-48
2023/06/25 06:18:08;;;;;;;16.05;13.50;;;;;;;24.01;65.63;101741.16;4997655;28;20165;-48
2023/06/25 06:20:33;;;;;;;14.00;12.25;;;;;;;24.17;61.32;101741.00;5003896;28;20075;-48
2023/06/25 06:22:59;;;;;;;14.40;12.77;;;;;;;24.44;61.17;101741.38;4998575;28;20030;-49
2023/06/25 06:25:25;;;;;;;14.30;12.27;;;;;;;24.66;61.81;101736.06;4998981;28;20026;-49
2023/06/25 06:27:52;;;;;;;13.77;12.15;;;;;;;24.91;59.71;101747.44;5000630;28;20026;-49
2023/06/25 06:30:17;;;;;;;15.35;11.70;;;;;;;25.08;58.30;101745.31;4999321;28;20125;-49
2023/06/25 06:32:42;;;;;;;15.55;11.93;;;;;;;25.28;57.44;101738.28;4995927;28;20120;-49
2023/06/25 06:35:08;;;;;;;13.15;10.43;;;;;;;25.44;56.06;101729.00;4995011;28;20506;-49
2023/06/25 06:37:33;;;;;;;14.32;9.90;;;;;;;25.58;54.26;101735.44;4998448;28;20034;-50
2023/06/25 06:39:58;;;;;;;12.48;10.05;;;;;;;25.84;53.45;101734.78;4998179;28;20108;-49
2023/06/25 06:42:24;;;;;;;12.83;9.03;;;;;;;25.98;52.33;101729.47;5000803;28;20018;-49
2023/06/25 06:44:49;;;;;;;10.17;8.07;;;;;;;26.12;50.33;101735.88;4995502;28;20365;-49
2023/06/25 06:47:15;;;;;;;9.25;7.55;;;;;;;26.30;47.80;101727.19;4994620;28;20281;-50
2023/06/25 06:49:40;;;;;;;9.77;6.90;;;;;;;26.37;47.89;101725.34;4995744;28;20025;-49
2023/06/25 06:52:06;;;;;;;11.18;7.30;;;;;;;26.51;46.17;101726.25;4996569;28;20027;-50
2023/06/25 06:54:31;;;;;;;8.02;6.30;;;;;;;26.67;46.78;101728.66;4997660;28;20109;-48
2023/06/25 06:56:56;;;;;;;9.17;6.90;;;;;;;26.83;45.29;101722.03;4990199;28;20041;-48
2023/06/25 06:59:22;;;;;;;6.78;6.07;;;;;;;26.98;46.06;101721.00;4996345;28;20270;-49
2023/06/25 07:01:47;;;;;;;8.18;6.00;;;;;;;27.18;43.15;101726.50;5001168;28;20113;-48
2023/06/25 07:04:12;;;;;;;8.40;6.22;;;;;;;27.36;42.75;101728.66;4997955;28;20081;-48
2023/06/25 07:06:37;;;;;;;7.85;4.93;;;;;;;27.56;43.62;101715.03;5000162;28;20350;-48
2023/06/25 07:09:03;;;;;;;10.05;6.13;;;;;;;27.63;41.72;101722.19;5000275;28;20018;-49
2023/06/25 07:11:28;;;;;;;9.82;5.55;;;;;;;27.81;42.34;101720.69;4995943;28;20030;-49
2023/06/25 07:13:53;;;;;;;6.60;5.55;;;;;;;27.95;40.83;101719.69;4995123;28;20472;-48
2023/06/25 07:16:19;;;;;;;8.07;4.75;;;;;;;28.07;43.25;101717.13;5001029;28;20030;-47
2023/06/25 07:18:44;;;;;;;7.93;5.32;;;;;;;28.24;40.76;101720.25;4988115;28;20108;-49
2023/06/25 07:21:09;;;;;;;6.43;4.87;;;;;;;28.53;43.32;101720.81;5001182;28;20034;-48
2023/06/25 07:23:36;;;;;;;7.50;4.88;;;;;;;28.71;40.68;101722.84;5000321;28;20311;-50
2023/06/25 07:26:02;;;;;;;6.85;4.78;;;;;;;28.83;40.75;101712.91;5002920;28;20061;-52
2023/06/25 07:28:28;;;;;;;6.32;4.70;;;;;;;29.05;40.99;101712.56;4996147;28;20423;-52
2023/06/25 07:30:53;;;;;;;5.68;4.22;;;;;;;29.19;39.87;101708.72;5000046;28;20089;-51
2023/06/25 07:33:18;;;;;;;8.00;4.88;;;;;;;29.41;38.37;101706.47;4993520;28;20555;-49
2023/06/25 07:35:44;;;;;;;6.25;4.65;;;;;;;29.62;39.26;101712.59;4993509;28;20526;-49
2023/06/25 07:38:09;;;;;;;6.00;4.47;;;;;;;29.73;38.36;101709.16;4992602;28;20041;-48
2023/06/25 07:40:34;;;;;;;6.63;4.32;;;;;;;29.80;39.61;101703.63;4993578;28;20034;-49
2023/06/25 07:42:59;;;;;;;7.32;4.55;;;;;;;30.15;38.97;101703.06;4998346;28;20038;-48
2023/06/25 07:45:25;;;;;;;6.17;4.57;;;;;;;30.25;37.40;101703.38;5003478;28;20026;-48
2023/06/25 07:47:50;;;;;;;6.03;4.63;;;;;;;30.27;37.91;101701.22;5000197;28;20343;-48
2023/06/25 07:50:15;;;;;;;4.80;4.15;;;;;;;30.40;38.13;101703.03;5003804;28;20125;-48
2023/06/25 07:52:41;;;;;;;5.22;4.15;;;;;;;30.64;38.67;101693.00;4998480;28;20487;-48
2023/06/25 07:55:06;;;;;;;5.05;4.00;;;;;;;30.74;38.05;101693.31;4997224;28;20438;-48
2023/06/25 07:57:32;;;;;;;7.80;4.50;;;;;;;30.95;37.44;101686.47;4995981;28;20030;-48
2023/06/25 07:59:57;;;;;;;6.65;3.97;;;;;;;31.20;36.54;101690.16;4989358;28;20434;-48
2023/06/25 08:02:22;;;;;;;6.73;4.40;;;;;;;31.14;36.22;101692.75;5000001;28;20456;-50
2023/06/25 08:04:49;;;;;;;5.68;4.35;;;;;;;31.29;38.46;101703.28;5001983;28;20022;-48
2023/06/25 08:07:14;;;;;;;5.38;4.50;;;;;;;31.44;35.57;101689.09;4997880;28;20528;-48
2023/06/25 08:09:40;;;;;;;5.97;4.80;;;;;;;31.52;35.80;101691.50;4997978;28;20117;-51
2023/06/25 08:12:05;;;;;;;5.30;4.13;;;;;;;31.68;36.74;101698.22;4999605;28;20459;-49
2023/06/25 08:14:31;;;;;;;6.50;4.70;;;;;;;31.87;35.68;101693.44;5002977;28;20032;-50
2023/06/25 08:16:56;;;;;;;6.85;4.50;;;;;;;32.11;36.15;101692.59;4999595;28;20030;-48
2023/06/25 08:19:22;;;;;;;4.85;4.40;;;;;;;32.32;35.35;101688.38;5003619;28;20045;-51
2023/06/25 08:21:47;;;;;;;6.45;4.13;;;;;;;32.49;36.61;101691.19;5004837;28;20461;-50
2023/06/25 08:24:12;;;;;;;4.63;4.22;;;;;;;32.60;36.26;101693.91;4999803;28;20527;-50
2023/06/25 08:26:38;;;;;;;6.68;4.70;;;;;;;32.91;35.04;101682.69;5000813;28;20428;-49
2023/06/25 08:29:04;;;;;;;9.63;4.80;;;;;;;32.91;33.83;101683.53;5000422;28;20069;-48
2023/06/25 08:31:29;;;;;;;6.75;4.50;;;;;;;32.76;34.28;101683.22;5000387;28;20300;-48
2023/06/25 08:33:54;;;;;;;5.15;4.25;;;;;;;33.03;34.15;101677.97;5001256;28;20046;-51
2023/06/25 08:36:20;;;;;;;7.72;4.45;;;;;;;33.16;34.42;101674.09;5001750;28;20023;-48
2023/06/25 08:38:45;;;;;;;4.70;4.15;;;;;;;33.35;33.37;101672.75;5001652;28;20114;-49
2023/06/25 08:41:10;;;;;;;5.40;4.10;;;;;;;33.59;33.62;101672.56;4997336;28;20105;-49
2023/06/25 08:43:36;;;;;;;5.32;4.22;;;;;;;33.69;33.72;101664.50;4998821;28;20497;-48
2023/06/25 08:46:02;;;;;;;4.20;3.80;;;;;;;33.89;34.04;101668.59;4997073;28;20042;-48
2023/06/25 08:48:32;;;;;;;7.38;4.13;;;;;;;34.08;33.48;101666.41;4999413;28;20022;-48
2023/06/25 08:51:03;;;;;;;5.22;4.00;;;;;;;34.02;32.45;101662.72;4998380;28;20496;-48
2023/06/25 08:53:28;;;;;;;8.80;4.22;;;;;;;33.97;30.47;101661.84;5001506;28;20113;-48
2023/06/25 08:55:58;;;;;;;4.68;3.75;;;;;;;34.10;32.93;101661.47;5001735;28;20506;-49
2023/06/25 08:58:24;;;;;;;9.85;4.20;;;;;;;34.27;31.48;101658.66;4996597;28;20491;-48
2023/06/25 09:00:50;;;;;;;6.28;4.20;;;;;;;34.40;32.42;101658.25;4998100;28;20467;-51
2023/06/25 09:03:15;;;;;;;5.82;4.18;;;;;;;34.55;30.77;101654.84;4998298;28;20033;-50
2023/06/25 09:05:51;;;;;;;4.32;3.97;;;;;;;34.86;31.91;101657.09;5002286;28;20030;-50
2023/06/25 09:08:16;;;;;;;5.18;3.90;;;;;;;34.89;31.69;101651.06;4996797;28;20037;-48
2023/06/25 09:10:41;;;;;;;4.53;3.40;;;;;;;35.15;30.48;101655.72;4997359;28;20022;-49
2023/06/25 09:13:07;;;;;;;4.22;3.75;;;;;;;35.43;30.72;101655.69;4997831;28;20027;-49
2023/06/25 09:15:32;;;;;;;4.47;3.95;;;;;;;35.66;30.12;101644.22;5000804;28;20029;-48
2023/06/25 09:17:57;;;;;;;6.07;3.90;;;;;;;35.83;28.87;101646.84;4996802;28;20375;-49
2023/06/25 09:20:24;;;;;;;4.68;3.53;;;;;;;35.93;29.17;101644.13;4998947;28;20408;-49
2023/06/25 09:22:50;;;;;;;5.35;3.95;;;;;;;36.04;29.28;101642.25;4999740;28;20565;-50
2023/06/25 09:25:15;;;;;;;5.65;3.95;;;;;;;35.94;29.03;101643.03;4997019;28;20022;-49
2023/06/25 09:27:41;;;;;;;4.10;3.60;;;;;;;36.15;28.06;101642.28;5001122;28;20105;-50
2023/06/25 09:30:10;;;;;;;4.68;3.47;;;;;;;36.09;28.29;101633.97;4997641;28;20081;-49
2023/06/25 09:32:35;;;;;;;4.30;3.30;;;;;;;36.21;28.69;101635.69;4996656;28;20033;-48
2023/06/25 09:35:03;;;;;;;3.90;3.60;;;;;;;36.41;27.66;101635.75;4998116;28;20022;-49
2023/06/25 09:37:28;;;;;;;6.28;3.53;;;;;;;36.44;27.31;101639.91;5000130;28;20697;-49
2023/06/25 09:39:53;;;;;;;4.05;3.42;;;;;;;36.40;27.31;101634.09;4996794;28;20026;-51
2023/06/25 09:42:19;;;;;;;4.95;3.40;;;;;;;36.54;27.10;101628.03;5001254;28;20443;-50
2023/06/25 09:44:50;;;;;;;4.88;3.53;;;;;;;36.42;27.31;101636.56;4998938;28;20390;-49
2023/06/25 09:47:19;;;;;;;3.50;3.20;;;;;;;36.55;26.41;101626.94;5002044;28;20507;-49
2023/06/25 09:49:44;;;;;;;4.18;3.45;;;;;;;36.95;26.30;101626.16;4998947;28;20037;-49
2023/06/25 09:52:15;;;;;;;4.40;3.30;;;;;;;37.12;27.66;101620.31;5018752;28;20479;-49
2023/06/25 09:54:41;;;;;;;5.80;3.53;;;;;;;37.31;26.45;101615.09;4999140;28;20030;-50
2023/06/25 09:57:09;;;;;;;5.20;3.40;;;;;;;37.15;25.97;101603.16;4996995;28;20046;-49
2023/06/25 09:59:36;;;;;;;6.10;3.85;;;;;;;37.22;25.85;101611.22;4997855;28;20018;-49
2023/06/25 10:02:05;;;;;;;5.30;3.60;;;;;;;37.56;25.88;101613.38;5000392;28;20034;-49
2023/06/25 10:04:32;;;;;;;4.30;3.10;;;;;;;37.73;26.56;101611.13;5003050;28;20036;-48
2023/06/25 10:06:58;;;;;;;3.78;3.47;;;;;;;37.47;25.06;101613.09;5002554;28;20041;-49
2023/06/25 10:09:23;;;;;;;5.50;3.40;;;;;;;37.61;24.93;101610.59;4994904;28;20422;-48
2023/06/25 10:11:54;;;;;;;4.43;3.50;;;;;;;37.63;27.90;101613.06;5004219;28;20040;-48
2023/06/25 10:14:21;;;;;;;3.60;3.30;;;;;;;37.88;25.14;101606.63;4995916;28;20058;-48
2023/06/25 10:16:56;;;;;;;5.70;3.47;;;;;;;38.10;27.43;101601.50;4998979;28;20041;-48
2023/06/25 10:19:26;;;;;;;3.90;3.47;;;;;;;38.07;24.34;101596.56;4997796;28;20042;-47
2023/06/25 10:22:00;;;;;;;3.67;3.13;;;;;;;37.97;25.50;101602.13;4999288;28;20383;-48
2023/06/25 10:24:25;;;;;;;5.80;3.30;;;;;;;38.05;23.67;101593.22;4998801;28;20112;-48
2023/06/25 10:26:53;;;;;;;3.90;3.20;;;;;;;38.22;24.07;101589.28;4997636;28;20181;-49
2023/06/25 10:29:19;;;;;;;4.07;3.38;;;;;;;38.13;23.74;101591.84;5000487;28;20029;-48
2023/06/25 10:31:45;;;;;;;4.32;3.25;;;;;;;38.09;23.74;101586.00;4996180;28;20029;-50
2023/06/25 10:34:12;;;;;;;4.25;2.70;;;;;;;38.11;25.46;101589.31;5000135;28;20050;-49
2023/06/25 10:36:48;;;;;;;4.00;3.25;;;;;;;38.37;25.04;101583.63;4995561;28;20058;-49
2023/06/25 10:39:14;;;;;;;3.97;3.53;;;;;;;38.27;26.18;101586.47;5000163;28;20019;-48
2023/06/25 10:41:46;;;;;;;3.90;3.33;;;;;;;38.61;24.21;101577.41;4997295;28;20033;-49
2023/06/25 10:44:11;;;;;;;4.53;3.20;;;;;;;38.43;23.34;101568.59;4999247;28;20077;-48
2023/06/25 10:46:36;;;;;;;4.13;3.60;;;;;;;38.63;23.78;101570.44;5001906;28;20471;-48
2023/06/25 10:49:02;;;;;;;3.80;3.43;;;;;;;38.46;22.80;101573.59;4997691;28;20029;-48
2023/06/25 10:51:28;;;;;;;6.68;2.97;;;;;;;38.57;23.30;101563.22;5000886;28;20277;-49
2023/06/25 10:53:57;;;;;;;4.03;3.05;;;;;;;38.49;23.90;101561.91;5005193;28;20122;-50
2023/06/25 10:56:23;;;;;;;6.22;3.35;;;;;;;38.60;23.93;101570.19;5003777;28;20033;-48
2023/06/25 10:58:58;;;;;;;4.05;3.08;;;;;;;38.80;24.61;101558.06;5003257;28;20026;-50
2023/06/25 11:01:24;;;;;;;3.50;3.20;;;;;;;39.01;22.88;101558.72;5003782;28;20070;-47
2023/06/25 11:03:50;;;;;;;4.07;3.30;;;;;;;38.90;22.04;101557.97;4999750;28;20033;-48
2023/06/25 11:06:15;;;;;;;3.83;3.42;;;;;;;39.17;22.04;101557.47;5003552;28;20480;-48
2023/06/25 11:08:42;;;;;;;5.15;3.30;;;;;;;39.24;22.80;101559.91;5004600;28;20022;-48
2023/06/25 11:11:07;;;;;;;7.88;3.45;;;;;;;38.88;22.63;101546.34;5004501;28;20399;-47